Grisham, Illinois
Current Conditions -  °F | °C
As of 1:15 PM on Friday 24 Oct 2014 (Local Time) from K3LF Reporting Station
Overcast Overcast  
Wind Chill: 60°   Ceiling: 800
Heat Index: 60°   Visibility: 10mi
Dew Point: 54°   Wind: 7mph
Humidity: 80%   Direction: 250°WSW
Pressure: 30.09"   Gusts: NA
Location:  39.0351°N, 89.5256°W
Report Text: K3LF 241815Z AUTO 25006KT 10SM OVC008 16/12 A3009 RMK AO2 T01560122
Loading
Personal Weather Stations






























Interactive Weather Map
Tropical Storm Tracking
New forecast layout! Learn more

10-Day Weather Forecast

Advertisements
Track Severe Weather on mobile